sensor_id;sensor_type;location;lat;lon;timestamp;pressure;altitude;pressure_sealevel;temperature;humidity
17521;BME280;8878;-33.370;-70.552;2023-02-18T00:02:00;91701.66;;;29.04;32.69
17521;BME280;8878;-33.370;-70.552;2023-02-18T00:04:31;91701.28;;;28.84;32.55
17521;BME280;8878;-33.370;-70.552;2023-02-18T00:07:00;91711.72;;;28.78;33.25
17521;BME280;8878;-33.370;-70.552;2023-02-18T00:09:30;91711.25;;;28.13;32.63
17521;BME280;8878;-33.370;-70.552;2023-02-18T00:11:59;91711.31;;;28.27;33.37
17521;BME280;8878;-33.370;-70.552;2023-02-18T00:14:30;91716.34;;;28.25;34.31
17521;BME280;8878;-33.370;-70.552;2023-02-18T00:16:59;91713.59;;;28.21;34.20
17521;BME280;8878;-33.370;-70.552;2023-02-18T00:19:29;91709.00;;;28.32;33.69
17521;BME280;8878;-33.370;-70.552;2023-02-18T00:21:58;91713.59;;;28.21;34.75
17521;BME280;8878;-33.370;-70.552;2023-02-18T00:24:27;91720.16;;;28.10;34.00
17521;BME280;8878;-33.370;-70.552;2023-02-18T00:26:56;91727.44;;;27.88;35.13
17521;BME280;8878;-33.370;-70.552;2023-02-18T00:29:26;91734.00;;;27.76;35.37
17521;BME280;8878;-33.370;-70.552;2023-02-18T00:31:58;91725.91;;;27.83;35.08
17521;BME280;8878;-33.370;-70.552;2023-02-18T00:34:27;91733.25;;;27.83;35.03
17521;BME280;8878;-33.370;-70.552;2023-02-18T00:36:57;91726.66;;;27.77;34.17
17521;BME280;8878;-33.370;-70.552;2023-02-18T00:39:27;91735.53;;;27.70;33.80
17521;BME280;8878;-33.370;-70.552;2023-02-18T00:41:56;91730.09;;;27.63;34.25
17521;BME280;8878;-33.370;-70.552;2023-02-18T00:44:26;91729.69;;;27.61;34.41
17521;BME280;8878;-33.370;-70.552;2023-02-18T00:46:55;91727.34;;;27.56;35.74
17521;BME280;8878;-33.370;-70.552;2023-02-18T00:49:26;91738.44;;;27.40;34.77
17521;BME280;8878;-33.370;-70.552;2023-02-18T00:51:56;91738.00;;;27.31;35.66
17521;BME280;8878;-33.370;-70.552;2023-02-18T00:54:25;91743.72;;;27.15;37.47
17521;BME280;8878;-33.370;-70.552;2023-02-18T00:56:55;91742.06;;;27.00;37.43
17521;BME280;8878;-33.370;-70.552;2023-02-18T00:59:26;91742.41;;;26.92;37.35
17521;BME280;8878;-33.370;-70.552;2023-02-18T01:01:56;91743.88;;;26.85;37.79
17521;BME280;8878;-33.370;-70.552;2023-02-18T01:04:27;91746.16;;;26.80;37.68
17521;BME280;8878;-33.370;-70.552;2023-02-18T01:06:56;91744.47;;;26.65;38.51
17521;BME280;8878;-33.370;-70.552;2023-02-18T01:09:26;91747.09;;;26.54;38.63
17521;BME280;8878;-33.370;-70.552;2023-02-18T01:11:55;91750.47;;;26.44;38.63
17521;BME280;8878;-33.370;-70.552;2023-02-18T01:14:27;91755.81;;;26.37;38.87
17521;BME280;8878;-33.370;-70.552;2023-02-18T01:16:57;91755.88;;;26.40;38.63
17521;BME280;8878;-33.370;-70.552;2023-02-18T01:19:30;91762.09;;;26.44;38.23
17521;BME280;8878;-33.370;-70.552;2023-02-18T01:22:01;91762.44;;;26.39;37.90
17521;BME280;8878;-33.370;-70.552;2023-02-18T01:24:32;91762.38;;;26.32;38.40
17521;BME280;8878;-33.370;-70.552;2023-02-18T01:27:01;91761.75;;;26.12;38.84
17521;BME280;8878;-33.370;-70.552;2023-02-18T01:29:31;91771.03;;;26.15;38.23
17521;BME280;8878;-33.370;-70.552;2023-02-18T01:32:00;91770.34;;;26.22;37.69
17521;BME280;8878;-33.370;-70.552;2023-02-18T01:34:31;91778.00;;;26.16;35.64
17521;BME280;8878;-33.370;-70.552;2023-02-18T01:37:01;91770.53;;;26.36;36.71
17521;BME280;8878;-33.370;-70.552;2023-02-18T01:39:31;91774.38;;;26.35;37.09
17521;BME280;8878;-33.370;-70.552;2023-02-18T01:42:00;91776.50;;;26.19;37.10
17521;BME280;8878;-33.370;-70.552;2023-02-18T01:44:32;91780.97;;;26.04;36.26
17521;BME280;8878;-33.370;-70.552;2023-02-18T01:47:01;91788.66;;;26.02;36.94
17521;BME280;8878;-33.370;-70.552;2023-02-18T01:49:34;91785.44;;;25.89;35.64
17521;BME280;8878;-33.370;-70.552;2023-02-18T01:52:07;91781.59;;;25.94;36.59
17521;BME280;8878;-33.370;-70.552;2023-02-18T01:54:39;91788.56;;;25.95;36.52
17521;BME280;8878;-33.370;-70.552;2023-02-18T01:57:12;91790.34;;;25.80;36.31
17521;BME280;8878;-33.370;-70.552;2023-02-18T01:59:45;91798.59;;;25.91;36.20
17521;BME280;8878;-33.370;-70.552;2023-02-18T02:02:18;91797.09;;;25.97;35.68
17521;BME280;8878;-33.370;-70.552;2023-02-18T02:04:50;91788.56;;;25.95;37.04
17521;BME280;8878;-33.370;-70.552;2023-02-18T02:07:21;91792.03;;;25.92;37.25
17521;BME280;8878;-33.370;-70.552;2023-02-18T02:09:53;91784.47;;;25.74;38.29
17521;BME280;8878;-33.370;-70.552;2023-02-18T02:12:46;91786.66;;;25.62;37.78
17521;BME280;8878;-33.370;-70.552;2023-02-18T02:15:34;91784.94;;;25.50;38.56
17521;BME280;8878;-33.370;-70.552;2023-02-18T02:18:31;91785.50;;;25.36;38.86
17521;BME280;8878;-33.370;-70.552;2023-02-18T02:27:14;91777.50;;;25.44;37.32
17521;BME280;8878;-33.370;-70.552;2023-02-18T02:30:14;91776.16;;;25.30;38.39
17521;BME280;8878;-33.370;-70.552;2023-02-18T02:35:55;91773.53;;;25.08;39.73
17521;BME280;8878;-33.370;-70.552;2023-02-18T02:38:33;91775.06;;;25.09;39.79
17521;BME280;8878;-33.370;-70.552;2023-02-18T02:41:16;91771.78;;;24.92;40.26
17521;BME280;8878;-33.370;-70.552;2023-02-18T02:43:55;91769.72;;;24.86;40.72
17521;BME280;8878;-33.370;-70.552;2023-02-18T02:46:34;91772.31;;;24.79;40.57
17521;BME280;8878;-33.370;-70.552;2023-02-18T02:49:15;91770.75;;;24.78;40.40
17521;BME280;8878;-33.370;-70.552;2023-02-18T02:51:55;91765.34;;;24.78;40.17
17521;BME280;8878;-33.370;-70.552;2023-02-18T02:54:28;91761.81;;;24.74;40.98
17521;BME280;8878;-33.370;-70.552;2023-02-18T02:57:09;91760.97;;;24.70;39.95
17521;BME280;8878;-33.370;-70.552;2023-02-18T03:00:00;91757.81;;;24.64;39.85
17521;BME280;8878;-33.370;-70.552;2023-02-18T03:02:39;91755.06;;;24.61;40.13
17521;BME280;8878;-33.370;-70.552;2023-02-18T03:05:22;91757.31;;;24.58;40.28
17521;BME280;8878;-33.370;-70.552;2023-02-18T03:08:08;91750.22;;;24.47;40.36
17521;BME280;8878;-33.370;-70.552;2023-02-18T03:10:47;91757.16;;;24.48;40.90
17521;BME280;8878;-33.370;-70.552;2023-02-18T03:13:29;91753.91;;;24.39;40.99
17521;BME280;8878;-33.370;-70.552;2023-02-18T03:16:10;91756.50;;;24.32;42.42
17521;BME280;8878;-33.370;-70.552;2023-02-18T03:18:44;91757.50;;;24.24;42.75
17521;BME280;8878;-33.370;-70.552;2023-02-18T03:21:22;91762.19;;;24.27;42.73
17521;BME280;8878;-33.370;-70.552;2023-02-18T03:23:56;91763.47;;;24.13;42.63
17521;BME280;8878;-33.370;-70.552;2023-02-18T03:26:28;91763.53;;;24.17;42.76
17521;BME280;8878;-33.370;-70.552;2023-02-18T03:29:01;91762.56;;;24.06;42.77
17521;BME280;8878;-33.370;-70.552;2023-02-18T03:31:33;91771.88;;;24.08;42.36
17521;BME280;8878;-33.370;-70.552;2023-02-18T03:34:08;91771.56;;;24.13;41.80
17521;BME280;8878;-33.370;-70.552;2023-02-18T03:36:39;91769.56;;;24.10;41.66
17521;BME280;8878;-33.370;-70.552;2023-02-18T03:39:15;91768.75;;;24.06;41.67
17521;BME280;8878;-33.370;-70.552;2023-02-18T03:41:45;91768.00;;;24.09;41.43
17521;BME280;8878;-33.370;-70.552;2023-02-18T03:44:15;91778.53;;;23.95;42.36
17521;BME280;8878;-33.370;-70.552;2023-02-18T03:46:45;91768.25;;;23.81;43.64
17521;BME280;8878;-33.370;-70.552;2023-02-18T03:49:15;91778.34;;;23.85;42.68
17521;BME280;8878;-33.370;-70.552;2023-02-18T03:51:44;91778.78;;;23.87;41.97
17521;BME280;8878;-33.370;-70.552;2023-02-18T03:54:16;91773.00;;;23.88;42.41
17521;BME280;8878;-33.370;-70.552;2023-02-18T03:56:46;91773.00;;;23.88;42.58
17521;BME280;8878;-33.370;-70.552;2023-02-18T03:59:15;91776.00;;;23.83;42.57
17521;BME280;8878;-33.370;-70.552;2023-02-18T04:01:44;91773.94;;;23.76;43.96
17521;BME280;8878;-33.370;-70.552;2023-02-18T04:04:14;91775.22;;;23.63;44.70
17521;BME280;8878;-33.370;-70.552;2023-02-18T04:06:44;91785.91;;;23.60;44.68
17521;BME280;8878;-33.370;-70.552;2023-02-18T04:09:15;91774.78;;;23.61;44.31
17521;BME280;8878;-33.370;-70.552;2023-02-18T04:11:45;91777.06;;;23.59;44.48
17521;BME280;8878;-33.370;-70.552;2023-02-18T04:14:14;91779.25;;;23.54;44.77
17521;BME280;8878;-33.370;-70.552;2023-02-18T04:16:44;91771.47;;;23.49;45.47
17521;BME280;8878;-33.370;-70.552;2023-02-18T04:19:13;91774.16;;;23.49;46.04
17521;BME280;8878;-33.370;-70.552;2023-02-18T04:21:43;91768.44;;;23.34;45.71
17521;BME280;8878;-33.370;-70.552;2023-02-18T04:24:12;91774.22;;;23.17;45.56
17521;BME280;8878;-33.370;-70.552;2023-02-18T04:26:43;91771.38;;;23.10;46.12
17521;BME280;8878;-33.370;-70.552;2023-02-18T04:29:12;91767.91;;;23.10;46.01
17521;BME280;8878;-33.370;-70.552;2023-02-18T04:31:42;91763.84;;;23.16;44.66
17521;BME280;8878;-33.370;-70.552;2023-02-18T04:34:11;91770.50;;;23.22;45.76
17521;BME280;8878;-33.370;-70.552;2023-02-18T04:36:40;91774.75;;;23.23;45.42
17521;BME280;8878;-33.370;-70.552;2023-02-18T04:39:09;91770.13;;;23.23;44.55
17521;BME280;8878;-33.370;-70.552;2023-02-18T04:41:39;91761.84;;;23.13;44.65
17521;BME280;8878;-33.370;-70.552;2023-02-18T04:44:10;91765.59;;;23.08;46.08
17521;BME280;8878;-33.370;-70.552;2023-02-18T04:46:40;91773.66;;;23.08;46.31
17521;BME280;8878;-33.370;-70.552;2023-02-18T04:49:09;91773.72;;;23.12;46.36
17521;BME280;8878;-33.370;-70.552;2023-02-18T04:51:38;91760.47;;;23.03;46.48
17521;BME280;8878;-33.370;-70.552;2023-02-18T04:54:08;91762.31;;;22.99;47.15
17521;BME280;8878;-33.370;-70.552;2023-02-18T04:56:37;91762.50;;;22.90;47.37
17521;BME280;8878;-33.370;-70.552;2023-02-18T04:59:06;91773.97;;;22.87;48.02
17521;BME280;8878;-33.370;-70.552;2023-02-18T05:01:39;91759.38;;;22.88;47.24
17521;BME280;8878;-33.370;-70.552;2023-02-18T05:04:08;91761.72;;;22.90;47.15
17521;BME280;8878;-33.370;-70.552;2023-02-18T05:06:37;91761.03;;;22.77;47.32
17521;BME280;8878;-33.370;-70.552;2023-02-18T05:09:09;91757.81;;;22.72;47.49
17521;BME280;8878;-33.370;-70.552;2023-02-18T05:11:38;91755.31;;;22.63;47.05
17521;BME280;8878;-33.370;-70.552;2023-02-18T05:14:07;91757.03;;;22.71;46.49
17521;BME280;8878;-33.370;-70.552;2023-02-18T05:16:39;91748.88;;;22.67;47.04
17521;BME280;8878;-33.370;-70.552;2023-02-18T05:19:08;91751.84;;;22.62;47.28
17521;BME280;8878;-33.370;-70.552;2023-02-18T05:21:38;91749.25;;;22.66;46.59
17521;BME280;8878;-33.370;-70.552;2023-02-18T05:24:08;91739.69;;;22.69;46.60
17521;BME280;8878;-33.370;-70.552;2023-02-18T05:26:37;91737.97;;;22.60;46.75
17521;BME280;8878;-33.370;-70.552;2023-02-18T05:29:07;91733.03;;;22.62;46.81
17521;BME280;8878;-33.370;-70.552;2023-02-18T05:31:37;91730.69;;;22.61;46.54
17521;BME280;8878;-33.370;-70.552;2023-02-18T05:34:07;91725.22;;;22.57;46.48
17521;BME280;8878;-33.370;-70.552;2023-02-18T05:36:36;91720.19;;;22.56;46.22
17521;BME280;8878;-33.370;-70.552;2023-02-18T05:39:06;91718.88;;;22.65;45.95
17521;BME280;8878;-33.370;-70.552;2023-02-18T05:41:35;91721.03;;;22.60;46.60
17521;BME280;8878;-33.370;-70.552;2023-02-18T05:44:04;91722.59;;;22.61;45.78
17521;BME280;8878;-33.370;-70.552;2023-02-18T05:46:52;91727.22;;;22.60;44.98
17521;BME280;8878;-33.370;-70.552;2023-02-18T05:49:21;91729.81;;;22.57;45.14
17521;BME280;8878;-33.370;-70.552;2023-02-18T05:51:50;91723.22;;;22.54;45.37
17521;BME280;8878;-33.370;-70.552;2023-02-18T05:54:20;91723.94;;;22.51;44.73
17521;BME280;8878;-33.370;-70.552;2023-02-18T05:56:49;91724.50;;;22.60;44.62
17521;BME280;8878;-33.370;-70.552;2023-02-18T05:59:19;91726.72;;;22.39;45.49
17521;BME280;8878;-33.370;-70.552;2023-02-18T06:01:50;91731.47;;;22.46;44.88
17521;BME280;8878;-33.370;-70.552;2023-02-18T06:04:19;91724.28;;;22.34;45.36
17521;BME280;8878;-33.370;-70.552;2023-02-18T06:06:49;91721.34;;;22.39;45.41
17521;BME280;8878;-33.370;-70.552;2023-02-18T06:09:18;91716.22;;;22.34;46.12
17521;BME280;8878;-33.370;-70.552;2023-02-18T06:11:47;91725.06;;;22.35;46.63
17521;BME280;8878;-33.370;-70.552;2023-02-18T06:14:17;91724.28;;;22.34;46.99
17521;BME280;8878;-33.370;-70.552;2023-02-18T06:16:46;91719.25;;;22.33;47.65
17521;BME280;8878;-33.370;-70.552;2023-02-18T06:19:17;91720.31;;;22.28;47.44
17521;BME280;8878;-33.370;-70.552;2023-02-18T06:21:47;91725.69;;;22.28;46.47
17521;BME280;8878;-33.370;-70.552;2023-02-18T06:24:16;91725.19;;;22.22;47.00
17521;BME280;8878;-33.370;-70.552;2023-02-18T06:26:45;91721.19;;;21.88;47.68
17521;BME280;8878;-33.370;-70.552;2023-02-18T06:29:15;91720.78;;;21.86;47.84
17521;BME280;8878;-33.370;-70.552;2023-02-18T06:31:45;91724.44;;;21.94;48.08
17521;BME280;8878;-33.370;-70.552;2023-02-18T06:34:14;91710.91;;;21.91;47.53
17521;BME280;8878;-33.370;-70.552;2023-02-18T06:36:45;91719.13;;;21.82;47.55
17521;BME280;8878;-33.370;-70.552;2023-02-18T06:39:15;91723.03;;;21.84;46.64
17521;BME280;8878;-33.370;-70.552;2023-02-18T06:41:44;91720.78;;;21.86;46.43
17521;BME280;8878;-33.370;-70.552;2023-02-18T06:44:13;91719.22;;;21.85;46.66
17521;BME280;8878;-33.370;-70.552;2023-02-18T06:46:43;91723.97;;;21.76;46.62
17521;BME280;8878;-33.370;-70.552;2023-02-18T06:49:12;91718.72;;;21.52;46.82
17521;BME280;8878;-33.370;-70.552;2023-02-18T06:51:41;91723.50;;;21.59;47.74
17521;BME280;8878;-33.370;-70.552;2023-02-18T06:54:13;91723.66;;;21.50;47.92
17521;BME280;8878;-33.370;-70.552;2023-02-18T06:56:42;91732.25;;;21.56;46.39
17521;BME280;8878;-33.370;-70.552;2023-02-18T06:59:11;91719.44;;;21.65;45.96
17521;BME280;8878;-33.370;-70.552;2023-02-18T07:01:40;91719.13;;;21.82;45.87
17521;BME280;8878;-33.370;-70.552;2023-02-18T07:04:10;91720.50;;;21.76;45.88
17521;BME280;8878;-33.370;-70.552;2023-02-18T07:06:39;91719.13;;;21.82;45.95
17521;BME280;8878;-33.370;-70.552;2023-02-18T07:09:08;91714.53;;;21.82;46.43
17521;BME280;8878;-33.370;-70.552;2023-02-18T07:11:39;91712.47;;;21.92;47.14
17521;BME280;8878;-33.370;-70.552;2023-02-18T07:14:08;91714.81;;;21.93;47.24
17521;BME280;8878;-33.370;-70.552;2023-02-18T07:16:38;91724.00;;;21.92;47.37
17521;BME280;8878;-33.370;-70.552;2023-02-18T07:19:08;91723.03;;;21.84;46.69
17521;BME280;8878;-33.370;-70.552;2023-02-18T07:21:37;91721.81;;;21.82;46.74
17521;BME280;8878;-33.370;-70.552;2023-02-18T07:24:07;91722.84;;;21.77;47.26
17521;BME280;8878;-33.370;-70.552;2023-02-18T07:26:38;91718.16;;;21.74;48.29
17521;BME280;8878;-33.370;-70.552;2023-02-18T07:29:07;91719.31;;;21.73;47.94
17521;BME280;8878;-33.370;-70.552;2023-02-18T07:31:37;91718.94;;;21.75;47.91
17521;BME280;8878;-33.370;-70.552;2023-02-18T07:34:07;91720.31;;;21.69;49.04
17521;BME280;8878;-33.370;-70.552;2023-02-18T07:36:36;91718.75;;;21.68;48.24
17521;BME280;8878;-33.370;-70.552;2023-02-18T07:39:06;91719.72;;;21.60;48.37
17521;BME280;8878;-33.370;-70.552;2023-02-18T07:41:35;91717.69;;;21.57;48.21
17521;BME280;8878;-33.370;-70.552;2023-02-18T07:44:06;91716.66;;;21.61;47.70
17521;BME280;8878;-33.370;-70.552;2023-02-18T07:46:39;91717.22;;;21.67;47.30
17521;BME280;8878;-33.370;-70.552;2023-02-18T07:49:08;91707.94;;;21.64;47.33
17521;BME280;8878;-33.370;-70.552;2023-02-18T07:51:38;91714.50;;;21.51;47.68
17521;BME280;8878;-33.370;-70.552;2023-02-18T07:54:07;91719.78;;;21.63;47.77
17521;BME280;8878;-33.370;-70.552;2023-02-18T07:56:36;91721.59;;;21.59;48.11
17521;BME280;8878;-33.370;-70.552;2023-02-18T07:59:08;91729.41;;;21.64;48.44
17521;BME280;8878;-33.370;-70.552;2023-02-18T08:01:37;91724.81;;;21.65;47.89
17521;BME280;8878;-33.370;-70.552;2023-02-18T08:04:07;91728.88;;;21.59;47.85
17521;BME280;8878;-33.370;-70.552;2023-02-18T08:06:37;91727.66;;;21.56;48.10
17521;BME280;8878;-33.370;-70.552;2023-02-18T08:09:07;91730.66;;;21.55;48.36
17521;BME280;8878;-33.370;-70.552;2023-02-18T08:11:37;91733.03;;;21.56;47.87
17521;BME280;8878;-33.370;-70.552;2023-02-18T08:14:08;91734.97;;;21.43;47.66
17521;BME280;8878;-33.370;-70.552;2023-02-18T08:16:37;91738.44;;;21.44;47.86
17521;BME280;8878;-33.370;-70.552;2023-02-18T08:19:07;91731.78;;;21.38;48.62
17521;BME280;8878;-33.370;-70.552;2023-02-18T08:21:36;91737.22;;;21.41;48.14
17521;BME280;8878;-33.370;-70.552;2023-02-18T08:24:06;91738.97;;;21.49;47.92
17521;BME280;8878;-33.370;-70.552;2023-02-18T08:26:35;91743.50;;;21.33;49.58
17521;BME280;8878;-33.370;-70.552;2023-02-18T08:29:05;91739.94;;;21.29;49.53
17521;BME280;8878;-33.370;-70.552;2023-02-18T08:31:36;91743.50;;;21.33;49.14
17521;BME280;8878;-33.370;-70.552;2023-02-18T08:34:05;91740.75;;;21.30;49.28
17521;BME280;8878;-33.370;-70.552;2023-02-18T08:36:35;91747.47;;;21.24;49.43
17521;BME280;8878;-33.370;-70.552;2023-02-18T08:39:04;91750.56;;;21.26;49.64
17521;BME280;8878;-33.370;-70.552;2023-02-18T08:41:35;91755.06;;;21.22;49.75
17521;BME280;8878;-33.370;-70.552;2023-02-18T08:44:04;91753.13;;;21.34;49.19
17521;BME280;8878;-33.370;-70.552;2023-02-18T08:46:35;91753.06;;;21.19;49.70
17521;BME280;8878;-33.370;-70.552;2023-02-18T08:49:05;91758.41;;;21.19;50.52
17521;BME280;8878;-33.370;-70.552;2023-02-18T08:51:35;91760.19;;;21.15;50.61
17521;BME280;8878;-33.370;-70.552;2023-02-18T08:54:05;91760.44;;;21.09;51.08
17521;BME280;8878;-33.370;-70.552;2023-02-18T08:56:34;91760.09;;;21.11;50.88
17521;BME280;8878;-33.370;-70.552;2023-02-18T08:59:03;91768.03;;;21.07;49.42
17521;BME280;8878;-33.370;-70.552;2023-02-18T09:01:35;91766.47;;;21.06;49.13
17521;BME280;8878;-33.370;-70.552;2023-02-18T09:04:05;91766.72;;;21.01;50.53
17521;BME280;8878;-33.370;-70.552;2023-02-18T09:06:37;91764.47;;;21.03;49.54
17521;BME280;8878;-33.370;-70.552;2023-02-18T09:09:07;91764.91;;;21.05;48.84
17521;BME280;8878;-33.370;-70.552;2023-02-18T09:11:36;91773.28;;;21.04;49.07
17521;BME280;8878;-33.370;-70.552;2023-02-18T09:14:05;91775.41;;;21.10;48.99
17521;BME280;8878;-33.370;-70.552;2023-02-18T09:16:38;91771.28;;;21.01;50.19
17521;BME280;8878;-33.370;-70.552;2023-02-18T09:19:07;91771.19;;;20.97;50.39
17521;BME280;8878;-33.370;-70.552;2023-02-18T09:21:37;91780.00;;;20.98;49.90
17521;BME280;8878;-33.370;-70.552;2023-02-18T09:24:06;91781.28;;;20.88;49.92
17521;BME280;8878;-33.370;-70.552;2023-02-18T09:26:36;91787.38;;;21.01;49.36
17521;BME280;8878;-33.370;-70.552;2023-02-18T09:29:06;91788.25;;;21.05;49.08
17521;BME280;8878;-33.370;-70.552;2023-02-18T09:31:37;91792.97;;;21.08;49.15
17521;BME280;8878;-33.370;-70.552;2023-02-18T09:34:07;91794.41;;;21.05;49.83
17521;BME280;8878;-33.370;-70.552;2023-02-18T09:36:37;91810.75;;;20.88;50.39
17521;BME280;8878;-33.370;-70.552;2023-02-18T09:39:07;91804.72;;;20.91;50.03
17521;BME280;8878;-33.370;-70.552;2023-02-18T09:41:41;91805.41;;;20.88;49.68
17521;BME280;8878;-33.370;-70.552;2023-02-18T09:44:15;91805.72;;;20.99;49.87
17521;BME280;8878;-33.370;-70.552;2023-02-18T09:46:50;91797.56;;;20.95;49.87
17521;BME280;8878;-33.370;-70.552;2023-02-18T09:49:24;91817.56;;;20.98;49.77
17521;BME280;8878;-33.370;-70.552;2023-02-18T09:51:55;91816.78;;;20.85;50.52
17521;BME280;8878;-33.370;-70.552;2023-02-18T09:54:26;91819.78;;;20.84;50.96
17521;BME280;8878;-33.370;-70.552;2023-02-18T09:56:56;91816.09;;;20.76;51.19
17521;BME280;8878;-33.370;-70.552;2023-02-18T09:59:28;91817.44;;;20.70;51.62
17521;BME280;8878;-33.370;-70.552;2023-02-18T10:02:01;91823.28;;;20.72;51.55
17521;BME280;8878;-33.370;-70.552;2023-02-18T10:04:33;91824.59;;;20.78;51.52
17521;BME280;8878;-33.370;-70.552;2023-02-18T10:07:08;91821.13;;;20.78;50.44
17521;BME280;8878;-33.370;-70.552;2023-02-18T10:09:47;91821.50;;;20.88;49.45
17521;BME280;8878;-33.370;-70.552;2023-02-18T10:12:19;91829.06;;;20.86;50.02
17521;BME280;8878;-33.370;-70.552;2023-02-18T10:14:51;91829.75;;;20.95;50.24
17521;BME280;8878;-33.370;-70.552;2023-02-18T10:17:25;91839.00;;;20.98;50.11
17521;BME280;8878;-33.370;-70.552;2023-02-18T10:19:55;91833.53;;;20.94;50.14
17521;BME280;8878;-33.370;-70.552;2023-02-18T10:22:27;91839.00;;;20.98;50.09
17521;BME280;8878;-33.370;-70.552;2023-02-18T10:24:58;91844.69;;;20.96;50.30
17521;BME280;8878;-33.370;-70.552;2023-02-18T10:27:30;91841.25;;;20.96;50.33
17521;BME280;8878;-33.370;-70.552;2023-02-18T10:30:09;91842.69;;;20.93;50.51
17521;BME280;8878;-33.370;-70.552;2023-02-18T10:32:53;91838.00;;;20.78;49.58
17521;BME280;8878;-33.370;-70.552;2023-02-18T10:35:28;91844.50;;;20.65;49.11
17521;BME280;8878;-33.370;-70.552;2023-02-18T10:38:06;91853.00;;;20.67;49.15
17521;BME280;8878;-33.370;-70.552;2023-02-18T10:40:50;91859.91;;;20.80;49.81
17521;BME280;8878;-33.370;-70.552;2023-02-18T10:43:28;91861.00;;;20.55;50.53
17521;BME280;8878;-33.370;-70.552;2023-02-18T10:46:06;91873.19;;;20.64;51.55
17521;BME280;8878;-33.370;-70.552;2023-02-18T10:49:01;91882.25;;;20.96;50.12
17521;BME280;8878;-33.370;-70.552;2023-02-18T10:51:34;91883.38;;;21.07;50.60
17521;BME280;8878;-33.370;-70.552;2023-02-18T10:54:06;91890.06;;;21.14;50.74
17521;BME280;8878;-33.370;-70.552;2023-02-18T10:56:39;91885.84;;;21.25;50.39
17521;BME280;8878;-33.370;-70.552;2023-02-18T10:59:13;91893.09;;;21.00;49.75
17521;BME280;8878;-33.370;-70.552;2023-02-18T11:01:54;91893.78;;;21.09;48.59
17521;BME280;8878;-33.370;-70.552;2023-02-18T11:04:34;91900.59;;;20.94;47.92
17521;BME280;8878;-33.370;-70.552;2023-02-18T11:07:11;91909.22;;;20.55;46.63
17521;BME280;8878;-33.370;-70.552;2023-02-18T11:09:46;91905.34;;;20.77;46.27
17521;BME280;8878;-33.370;-70.552;2023-02-18T11:12:18;91907.47;;;20.71;45.50
17521;BME280;8878;-33.370;-70.552;2023-02-18T11:15:14;91911.41;;;20.98;46.40
17521;BME280;8878;-33.370;-70.552;2023-02-18T11:17:45;91907.50;;;21.07;45.83
17521;BME280;8878;-33.370;-70.552;2023-02-18T11:20:34;91922.06;;;21.31;46.11
17521;BME280;8878;-33.370;-70.552;2023-02-18T11:23:18;91928.09;;;21.40;45.40
17521;BME280;8878;-33.370;-70.552;2023-02-18T11:25:59;91925.63;;;21.59;45.50
17521;BME280;8878;-33.370;-70.552;2023-02-18T11:28:44;91927.72;;;21.66;47.43
17521;BME280;8878;-33.370;-70.552;2023-02-18T11:31:21;91924.34;;;21.69;47.13
17521;BME280;8878;-33.370;-70.552;2023-02-18T11:33:53;91923.56;;;21.80;46.87
17521;BME280;8878;-33.370;-70.552;2023-02-18T11:36:28;91932.69;;;21.92;46.95
17521;BME280;8878;-33.370;-70.552;2023-02-18T11:39:00;91930.13;;;21.83;47.29
17521;BME280;8878;-33.370;-70.552;2023-02-18T11:41:34;91939.88;;;22.00;46.70
17521;BME280;8878;-33.370;-70.552;2023-02-18T11:44:06;91935.75;;;22.18;46.67
17521;BME280;8878;-33.370;-70.552;2023-02-18T11:46:56;91943.75;;;22.14;47.08
17521;BME280;8878;-33.370;-70.552;2023-02-18T11:49:26;91941.84;;;22.15;46.32
17521;BME280;8878;-33.370;-70.552;2023-02-18T11:52:13;91936.59;;;22.34;46.37
17521;BME280;8878;-33.370;-70.552;2023-02-18T11:54:58;91947.81;;;22.36;45.83
17521;BME280;8878;-33.370;-70.552;2023-02-18T11:57:29;91949.84;;;22.55;45.63
17521;BME280;8878;-33.370;-70.552;2023-02-18T11:59:59;91952.38;;;22.63;45.18
17521;BME280;8878;-33.370;-70.552;2023-02-18T12:02:33;91954.53;;;22.58;45.08
17521;BME280;8878;-33.370;-70.552;2023-02-18T12:05:08;91946.00;;;22.84;44.60
17521;BME280;8878;-33.370;-70.552;2023-02-18T12:07:44;91951.94;;;23.05;44.67
17521;BME280;8878;-33.370;-70.552;2023-02-18T12:10:20;91957.56;;;23.31;43.51
17521;BME280;8878;-33.370;-70.552;2023-02-18T12:12:59;91958.38;;;23.48;42.45
17521;BME280;8878;-33.370;-70.552;2023-02-18T12:15:39;91965.75;;;23.51;41.54
17521;BME280;8878;-33.370;-70.552;2023-02-18T12:18:26;91952.38;;;23.54;40.67
17521;BME280;8878;-33.370;-70.552;2023-02-18T12:21:14;91962.50;;;23.45;39.72
17521;BME280;8878;-33.370;-70.552;2023-02-18T12:23:56;91966.06;;;23.18;40.50
17521;BME280;8878;-33.370;-70.552;2023-02-18T12:26:28;91963.91;;;23.39;40.96
17521;BME280;8878;-33.370;-70.552;2023-02-18T12:29:17;91966.06;;;23.33;41.53
17521;BME280;8878;-33.370;-70.552;2023-02-18T12:32:04;91969.78;;;23.76;40.95
17521;BME280;8878;-33.370;-70.552;2023-02-18T12:34:51;91969.09;;;23.79;40.80
17521;BME280;8878;-33.370;-70.552;2023-02-18T12:37:44;91974.66;;;23.39;42.00
17521;BME280;8878;-33.370;-70.552;2023-02-18T12:40:35;91969.13;;;23.48;41.69
17521;BME280;8878;-33.370;-70.552;2023-02-18T12:43:16;91974.69;;;23.55;41.48
17521;BME280;8878;-33.370;-70.552;2023-02-18T12:46:00;91970.88;;;23.56;41.20
17521;BME280;8878;-33.370;-70.552;2023-02-18T12:48:51;91969.13;;;23.98;40.59
17521;BME280;8878;-33.370;-70.552;2023-02-18T12:51:32;91971.31;;;23.93;40.52
17521;BME280;8878;-33.370;-70.552;2023-02-18T12:54:24;91979.72;;;23.72;40.44
17521;BME280;8878;-33.370;-70.552;2023-02-18T12:57:06;91980.06;;;23.70;40.22
17521;BME280;8878;-33.370;-70.552;2023-02-18T12:59:56;91981.13;;;24.01;39.76
17521;BME280;8878;-33.370;-70.552;2023-02-18T13:05:47;91981.34;;;24.11;39.71
17521;BME280;8878;-33.370;-70.552;2023-02-18T13:08:34;91984.19;;;23.99;39.41
17521;BME280;8878;-33.370;-70.552;2023-02-18T13:11:18;91991.69;;;24.25;39.53
17521;BME280;8878;-33.370;-70.552;2023-02-18T13:13:57;91981.97;;;24.40;38.77
17521;BME280;8878;-33.370;-70.552;2023-02-18T13:16:29;91984.75;;;24.43;39.45
17521;BME280;8878;-33.370;-70.552;2023-02-18T13:19:02;91990.25;;;23.96;40.03
17521;BME280;8878;-33.370;-70.552;2023-02-18T13:21:37;91988.13;;;24.21;39.30
17521;BME280;8878;-33.370;-70.552;2023-02-18T13:24:10;91990.13;;;24.24;39.86